ARKANSAS RIVER NAVIGATION REPORT
  LITTLE ROCK DISTRICT - U.S. ARMY CORPS OF ENGINEERS
  GENERATED: 20 AUG 2019 @ 10:35
 
  NOTE: These data are not guaranteed to be valid or correct.
        RELEASES AND FLOWS ARE IN THOUSANDS OF CFS
  _____________________________________________________________________________
 
                  19AUG     19AUG      19AUG           20AUG          20AUG
                  @1200     @2400     AVERAGE      LATEST OBSERVED    PRECIP.
                  HOURS     HOURS      FLOW         DATA AND TIME     (7A-7A)
  _____________________________________________________________________________
 
  LD13 HW-ELEV    391.39    391.36                391.48  @   9:00      0.00
  LD13 TW-ELEV    377.03    377.62                377.77  @   9:00
  LD13 RELEASE     56.2      61.4      57.6        49.9   @   9:00
 
  OZA.L&D HW-ELEV 371.25    371.37                371.79  @   9:00      0.00
  OZA.L&D TW-ELEV 348.40    347.13                346.81  @   9:00
  OZA.L&D RELEASE   -.1       -.1      20.8         -.1   @   9:00
 
  DRD.L&D HW-ELEV 338.85    338.83                338.86  @   9:00      0.00
  DRD.L&D TW-ELEV 291.18    290.98                290.96  @   9:00
  DRD.L&D RELEASE  59.5      59.1      59.8        59.4   @   9:00
 
  LD09 HW-ELEV    284.79    284.55                284.53  @   9:00      0.00
  LD09 TW-ELEV    271.81    271.44                271.38  @   9:00
  LD09 RELEASE     61.0      58.1      60.4        58.1   @   9:00
 
  LD08 HW-ELEV    264.44    264.48                264.45  @   9:00      0.00
  LD08 TW-ELEV    257.76    257.67                257.45  @   9:00
  LD08 RELEASE     63.4      62.1      63.1        60.6   @   9:00
 
  LD07 HW-ELEV    248.47    248.69                248.67  @   9:00      0.00
  LD07 TW-ELEV    231.91    231.91                231.94  @   9:00
  LD07 RELEASE     57.8      58.3      58.8        58.4   @   9:00
 
  LD06 HW-ELEV    230.75    230.74                230.74  @   9:00      0.00
  LD06 TW-ELEV    216.98    217.01                217.04  @   9:00
  LD06 RELEASE     59.8      59.7      60.5        59.6   @   9:00
 
  LD05 HW-ELEV    213.66    213.68                213.76  @   9:00      0.00
  LD05 TW-ELEV    197.88    197.98                197.93  @   9:00
  LD05 RELEASE     54.4      55.7      56.5        56.0   @   9:00
 
  LD04 HW-ELEV    195.82    195.73                195.63  @   9:00       .01
  LD04 TW-ELEV    184.54    184.48                184.46  @   9:00
  LD04 RELEASE     60.3      60.2      60.1        60.0   @   9:00
 
  LD03 HW-ELEV    181.48    181.37                181.31  @   9:00      0.00
  LD03 TW-ELEV    169.80    169.78                169.77  @   9:00
  LD03 RELEASE     59.9      59.9      60.1        59.7   @   9:00
 
  L02 HW-ELEV     162.96    162.99                162.81  @   9:00      0.00
 
  D02 HW-ELEV     162.84    162.89                162.73  @   9:00      0.00
  D02 TW-ELEV     136.11    136.45                136.75  @   9:00
  D02 RELEASE      59.6      63.3      61.7        64.5   @   8:00
 
  L01 TW-ELEV     133.51    133.41                133.30  @   9:00      0.00
 
  MPLD HW-ELEV    132.41    132.30                132.19  @   9:00      0.00	
  MPLD TW-ELEV    132.31    132.20                132.09  @   9:00
 
  WREC DIFF.        1.10      1.11                  1.11
  CLARENDON FLOW   32.40     32.21     32.42       31.93  @   9:00
  HELENA STAGE     16.87     16.76                 16.61  @   9:00
  CAIRO STAGE      23.80     23.59                 23.65  @   9:00
  _____________________________________________________________________________